CheckWX is a tool to help pilots better visualize weather data.  It is not intended as a substitute for an official pre-flight weather briefing.

07:39:38 UTC

KALS METAR
San Luis Valley Regional / Bergman Field Airport
Alamosa, Colorado, USA
Current

48 mins ago

KALS 180652Z AUTO 00000KT 10SM FEW120 10/08 A3024 RMK AO2 SLP152 T01000083 402330089
Observed
Jun-18 @ 06:52 UTC
Visibility
10 SM
Flight Rules
VFR
Cloud Levels
  • Few at 12,000' AGL
Temperature
10°C / 50°F
Dewpoint
C / 46°F
Humidity
88%
Altimeter
30.24" Hg
Pressure
1024.02 hPa
Previous

2 hours ago

KALS 180552Z AUTO 15004KT 10SM BKN085 OVC100 10/08 A3024 RMK AO2 SLP157 60009 T01000083 10122 20094 50009
Observed
Jun-18 @ 05:52 UTC
Wind
  • 150° at 4 KTS
Visibility
10 SM
Flight Rules
VFR
Cloud Levels
  • Broken at 8,500' AGL
  • Overcast at 10,000' AGL
Temperature
10°C / 50°F
Dewpoint
C / 46°F
Humidity
88%
Altimeter
30.24" Hg
Pressure
1024.02 hPa
Previous

3 hours ago

KALS 180452Z AUTO 07005KT 10SM CLR 09/08 A3025 RMK AO2 SLP167 T00940078
Observed
Jun-18 @ 04:52 UTC
Wind
  • 070° at 5 KTS
Visibility
10 SM
Flight Rules
VFR
Cloud Levels
  • Clear skies
Temperature
C / 48°F
Dewpoint
C / 46°F
Humidity
94%
Altimeter
30.25" Hg
Pressure
1024.42 hPa